Huyton-with-Roby, United Kingdom
Current Conditions -  °F | °C
As of 8:50 PM on Thursday 18 Dec 2014 (Local Time) from EGGP Reporting Station
Rain Showers Rain Showers  
Wind Chill: 54°   Ceiling: 3000
Heat Index: 54°   Visibility: 6mi
Dew Point: 50°   Wind: 17mph
Humidity: 88%   Direction: 250°WSW
Pressure: 29.62"   Gusts: NA
Location:  53.41°N, 2.84°W
Report Text: EGGP 182050Z 25015KT 9999 -SHRA BKN030 12/10 Q1003
Loading
Personal Weather Stations






























Interactive Weather Map New forecast layout! Learn more

10-Day Weather Forecast

Advertisements
Track Severe Weather on mobile